sensor_id;sensor_type;location;lat;lon;timestamp;pressure;altitude;pressure_sealevel;temperature;humidity
60170;BME280;46042;49.444;6.862;2023-08-06T14:54:01;98238.03;;;15.00;100.00
60170;BME280;46042;49.444;6.862;2023-08-06T14:56:28;98244.75;;;14.94;100.00
60170;BME280;46042;49.444;6.862;2023-08-06T14:58:56;98236.94;;;15.12;100.00
60170;BME280;46042;49.444;6.862;2023-08-06T15:01:22;98240.97;;;15.06;100.00
60170;BME280;46042;49.444;6.862;2023-08-06T15:03:49;98252.97;;;15.20;100.00
60170;BME280;46042;49.444;6.862;2023-08-06T15:06:16;98242.34;;;15.20;100.00
60170;BME280;46042;49.444;6.862;2023-08-06T15:08:42;98258.84;;;15.14;100.00
60170;BME280;46042;49.444;6.862;2023-08-06T15:11:13;98259.53;;;15.16;100.00
60170;BME280;46042;49.444;6.862;2023-08-06T15:13:39;98264.44;;;15.11;100.00
60170;BME280;46042;49.444;6.862;2023-08-06T15:16:06;98266.25;;;15.20;100.00
60170;BME280;46042;49.444;6.862;2023-08-06T15:18:33;98262.75;;;15.30;100.00
60170;BME280;46042;49.444;6.862;2023-08-06T15:20:59;98265.41;;;15.40;100.00
60170;BME280;46042;49.444;6.862;2023-08-06T15:23:26;98250.56;;;15.47;100.00
60170;BME280;46042;49.444;6.862;2023-08-06T15:25:53;98265.41;;;15.30;100.00
60170;BME280;46042;49.444;6.862;2023-08-06T15:28:20;98271.41;;;15.12;100.00
60170;BME280;46042;49.444;6.862;2023-08-06T15:30:51;98270.84;;;15.38;100.00
60170;BME280;46042;49.444;6.862;2023-08-06T15:33:18;98273.09;;;15.13;100.00
60170;BME280;46042;49.444;6.862;2023-08-06T15:35:45;98280.34;;;15.11;100.00
60170;BME280;46042;49.444;6.862;2023-08-06T15:38:12;98279.78;;;14.88;100.00
60170;BME280;46042;49.444;6.862;2023-08-06T15:40:39;98286.81;;;14.68;100.00
60170;BME280;46042;49.444;6.862;2023-08-06T15:43:06;98294.16;;;14.44;100.00
60170;BME280;46042;49.444;6.862;2023-08-06T15:45:32;98291.88;;;14.30;100.00
60170;BME280;46042;49.444;6.862;2023-08-06T15:47:59;98304.91;;;14.43;100.00
60170;BME280;46042;49.444;6.862;2023-08-06T15:50:26;98303.78;;;14.45;100.00
60170;BME280;46042;49.444;6.862;2023-08-06T15:52:52;98309.34;;;14.42;100.00
60170;BME280;46042;49.444;6.862;2023-08-06T15:55:19;98317.22;;;14.22;100.00
60170;BME280;46042;49.444;6.862;2023-08-06T15:57:46;98316.91;;;14.16;100.00
60170;BME280;46042;49.444;6.862;2023-08-06T16:00:13;98322.53;;;14.01;100.00
60170;BME280;46042;49.444;6.862;2023-08-06T16:02:39;98329.72;;;14.11;100.00
60170;BME280;46042;49.444;6.862;2023-08-06T16:05:06;98330.69;;;13.88;100.00
60170;BME280;46042;49.444;6.862;2023-08-06T16:07:33;98325.78;;;13.84;100.00
60170;BME280;46042;49.444;6.862;2023-08-06T16:10:01;98327.09;;;13.89;100.00
60170;BME280;46042;49.444;6.862;2023-08-06T16:12:28;98330.31;;;13.93;100.00
60170;BME280;46042;49.444;6.862;2023-08-06T16:14:55;98332.25;;;13.91;100.00
60170;BME280;46042;49.444;6.862;2023-08-06T16:17:22;98334.78;;;13.71;100.00
60170;BME280;46042;49.444;6.862;2023-08-06T16:19:49;98328.69;;;13.59;100.00
60170;BME280;46042;49.444;6.862;2023-08-06T16:22:18;98336.81;;;13.46;100.00
60170;BME280;46042;49.444;6.862;2023-08-06T16:24:45;98335.03;;;13.47;100.00
60170;BME280;46042;49.444;6.862;2023-08-06T16:27:11;98343.72;;;13.26;100.00
60170;BME280;46042;49.444;6.862;2023-08-06T16:29:38;98357.88;;;13.36;100.00
60170;BME280;46042;49.444;6.862;2023-08-06T16:32:05;98350.41;;;13.42;100.00
60170;BME280;46042;49.444;6.862;2023-08-06T16:34:32;98357.72;;;13.49;100.00
60170;BME280;46042;49.444;6.862;2023-08-06T16:36:59;98354.34;;;13.59;100.00
60170;BME280;46042;49.444;6.862;2023-08-06T16:39:26;98351.81;;;13.57;100.00
60170;BME280;46042;49.444;6.862;2023-08-06T16:41:54;98363.44;;;13.66;100.00
60170;BME280;46042;49.444;6.862;2023-08-06T16:44:21;98367.91;;;13.65;100.00
60170;BME280;46042;49.444;6.862;2023-08-06T16:46:47;98367.22;;;13.52;100.00
60170;BME280;46042;49.444;6.862;2023-08-06T16:49:15;98367.22;;;13.52;100.00
60170;BME280;46042;49.444;6.862;2023-08-06T16:51:42;98372.41;;;13.54;100.00
60170;BME280;46042;49.444;6.862;2023-08-06T16:54:08;98369.88;;;13.52;100.00
60170;BME280;46042;49.444;6.862;2023-08-06T16:56:35;98373.38;;;13.53;100.00
60170;BME280;46042;49.444;6.862;2023-08-06T16:59:03;98373.13;;;13.56;100.00
60170;BME280;46042;49.444;6.862;2023-08-06T17:01:30;98376.41;;;13.48;100.00
60170;BME280;46042;49.444;6.862;2023-08-06T17:03:56;98370.97;;;13.49;100.00
60170;BME280;46042;49.444;6.862;2023-08-06T17:06:23;98385.53;;;13.44;100.00
60170;BME280;46042;49.444;6.862;2023-08-06T17:08:50;98396.13;;;13.32;100.00
60170;BME280;46042;49.444;6.862;2023-08-06T17:11:19;98385.59;;;13.21;100.00
60170;BME280;46042;49.444;6.862;2023-08-06T17:13:47;98383.06;;;13.19;100.00
60170;BME280;46042;49.444;6.862;2023-08-06T17:16:14;98392.97;;;13.06;100.00
60170;BME280;46042;49.444;6.862;2023-08-06T17:18:41;98394.91;;;12.92;100.00
60170;BME280;46042;49.444;6.862;2023-08-06T17:21:08;98395.75;;;12.93;100.00
60170;BME280;46042;49.444;6.862;2023-08-06T17:23:35;98399.00;;;12.85;100.00
60170;BME280;46042;49.444;6.862;2023-08-06T17:26:02;98405.00;;;12.87;100.00
60170;BME280;46042;49.444;6.862;2023-08-06T17:28:28;98417.25;;;12.77;100.00
60170;BME280;46042;49.444;6.862;2023-08-06T17:30:55;98406.47;;;12.69;100.00
60170;BME280;46042;49.444;6.862;2023-08-06T17:33:22;98412.34;;;12.61;100.00
60170;BME280;46042;49.444;6.862;2023-08-06T17:35:49;98417.75;;;12.59;100.00
60170;BME280;46042;49.444;6.862;2023-08-06T17:38:19;98424.59;;;12.62;100.00
60170;BME280;46042;49.444;6.862;2023-08-06T17:40:46;98420.72;;;12.55;100.00
60170;BME280;46042;49.444;6.862;2023-08-06T17:43:13;98421.69;;;12.54;100.00
60170;BME280;46042;49.444;6.862;2023-08-06T17:45:39;98426.50;;;12.48;100.00
60170;BME280;46042;49.444;6.862;2023-08-06T17:48:07;98439.22;;;12.55;100.00
60170;BME280;46042;49.444;6.862;2023-08-06T17:50:33;98434.09;;;12.53;100.00
60170;BME280;46042;49.444;6.862;2023-08-06T17:53:00;98439.72;;;12.48;100.00
60170;BME280;46042;49.444;6.862;2023-08-06T17:55:27;98447.03;;;12.45;100.00
60170;BME280;46042;49.444;6.862;2023-08-06T17:57:53;98459.16;;;12.36;100.00
60170;BME280;46042;49.444;6.862;2023-08-06T18:00:20;98457.81;;;12.30;100.00
60170;BME280;46042;49.444;6.862;2023-08-06T18:02:47;98457.94;;;12.29;100.00
60170;BME280;46042;49.444;6.862;2023-08-06T18:05:14;98460.44;;;12.19;100.00
60170;BME280;46042;49.444;6.862;2023-08-06T18:07:44;98460.53;;;12.17;100.00
60170;BME280;46042;49.444;6.862;2023-08-06T18:10:12;98460.41;;;12.07;100.00
60170;BME280;46042;49.444;6.862;2023-08-06T18:12:39;98478.06;;;12.07;100.00
60170;BME280;46042;49.444;6.862;2023-08-06T18:15:10;98472.88;;;12.05;100.00
60170;BME280;46042;49.444;6.862;2023-08-06T18:17:39;98474.78;;;12.03;100.00
60170;BME280;46042;49.444;6.862;2023-08-06T18:20:08;98472.56;;;11.97;100.00
60170;BME280;46042;49.444;6.862;2023-08-06T18:22:35;98471.97;;;11.93;100.00
60170;BME280;46042;49.444;6.862;2023-08-06T18:25:05;98476.53;;;11.91;100.00
60170;BME280;46042;49.444;6.862;2023-08-06T18:27:35;98475.75;;;11.89;100.00
60170;BME280;46042;49.444;6.862;2023-08-06T18:30:02;98485.41;;;11.90;100.00
60170;BME280;46042;49.444;6.862;2023-08-06T18:32:29;98482.00;;;11.88;100.00
60170;BME280;46042;49.444;6.862;2023-08-06T18:34:56;98479.94;;;11.80;100.00
60170;BME280;46042;49.444;6.862;2023-08-06T18:37:23;98482.06;;;11.75;100.00
60170;BME280;46042;49.444;6.862;2023-08-06T18:39:50;98479.75;;;11.71;100.00
60170;BME280;46042;49.444;6.862;2023-08-06T18:42:16;98484.09;;;11.72;100.00
60170;BME280;46042;49.444;6.862;2023-08-06T18:44:44;98477.66;;;11.76;100.00
60170;BME280;46042;49.444;6.862;2023-08-06T18:47:10;98487.19;;;11.65;100.00
60170;BME280;46042;49.444;6.862;2023-08-06T18:49:37;98482.53;;;11.69;100.00
60170;BME280;46042;49.444;6.862;2023-08-06T18:52:04;98487.81;;;11.69;100.00
60170;BME280;46042;49.444;6.862;2023-08-06T18:54:32;98491.09;;;11.60;100.00
60170;BME280;46042;49.444;6.862;2023-08-06T18:56:59;98485.50;;;11.64;100.00
60170;BME280;46042;49.444;6.862;2023-08-06T18:59:25;98478.78;;;11.60;100.00
60170;BME280;46042;49.444;6.862;2023-08-06T19:01:52;98482.38;;;11.59;100.00
60170;BME280;46042;49.444;6.862;2023-08-06T19:04:19;98491.34;;;11.57;100.00
60170;BME280;46042;49.444;6.862;2023-08-06T19:06:45;98496.38;;;11.60;100.00
60170;BME280;46042;49.444;6.862;2023-08-06T19:09:13;98498.06;;;11.61;100.00
60170;BME280;46042;49.444;6.862;2023-08-06T19:11:41;98499.03;;;11.60;100.00
60170;BME280;46042;49.444;6.862;2023-08-06T19:14:08;98504.53;;;11.57;100.00
60170;BME280;46042;49.444;6.862;2023-08-06T19:16:34;98503.69;;;11.56;100.00
60170;BME280;46042;49.444;6.862;2023-08-06T19:19:01;98509.31;;;11.51;100.00
60170;BME280;46042;49.444;6.862;2023-08-06T19:21:28;98508.66;;;11.48;100.00
60170;BME280;46042;49.444;6.862;2023-08-06T19:23:55;98508.03;;;11.44;100.00
60170;BME280;46042;49.444;6.862;2023-08-06T19:26:23;98502.75;;;11.44;100.00
60170;BME280;46042;49.444;6.862;2023-08-06T19:28:50;98508.91;;;11.45;100.00
60170;BME280;46042;49.444;6.862;2023-08-06T19:31:17;98516.31;;;11.40;100.00
60170;BME280;46042;49.444;6.862;2023-08-06T19:33:43;98505.63;;;11.41;100.00
60170;BME280;46042;49.444;6.862;2023-08-06T19:36:10;98503.13;;;11.40;100.00
60170;BME280;46042;49.444;6.862;2023-08-06T19:38:37;98503.72;;;11.43;100.00
60170;BME280;46042;49.444;6.862;2023-08-06T19:41:07;98517.03;;;11.42;100.00
60170;BME280;46042;49.444;6.862;2023-08-06T19:43:36;98519.78;;;11.40;100.00
60170;BME280;46042;49.444;6.862;2023-08-06T19:46:03;98522.53;;;11.38;100.00
60170;BME280;46042;49.444;6.862;2023-08-06T19:48:31;98528.94;;;11.34;100.00
60170;BME280;46042;49.444;6.862;2023-08-06T19:50:59;98527.19;;;11.35;100.00
60170;BME280;46042;49.444;6.862;2023-08-06T19:53:31;98529.19;;;11.31;100.00
60170;BME280;46042;49.444;6.862;2023-08-06T19:56:02;98529.81;;;11.35;100.00
60170;BME280;46042;49.444;6.862;2023-08-06T19:58:32;98525.19;;;11.26;100.00
60170;BME280;46042;49.444;6.862;2023-08-06T20:00:58;98525.81;;;11.29;100.00
60170;BME280;46042;49.444;6.862;2023-08-06T20:03:25;98524.34;;;11.25;100.00
60170;BME280;46042;49.444;6.862;2023-08-06T20:05:53;98522.31;;;11.29;100.00
60170;BME280;46042;49.444;6.862;2023-08-06T20:08:20;98521.59;;;11.27;100.00
60170;BME280;46042;49.444;6.862;2023-08-06T20:10:47;98522.66;;;11.24;100.00
60170;BME280;46042;49.444;6.862;2023-08-06T20:13:15;98524.44;;;11.23;100.00
60170;BME280;46042;49.444;6.862;2023-08-06T20:15:42;98528.66;;;11.26;100.00
60170;BME280;46042;49.444;6.862;2023-08-06T20:18:12;98535.00;;;11.23;100.00
60170;BME280;46042;49.444;6.862;2023-08-06T20:20:39;98534.16;;;11.23;100.00
60170;BME280;46042;49.444;6.862;2023-08-06T20:23:06;98532.34;;;11.23;100.00
60170;BME280;46042;49.444;6.862;2023-08-06T20:25:33;98540.25;;;11.23;100.00
60170;BME280;46042;49.444;6.862;2023-08-06T20:28:00;98546.50;;;11.22;100.00
60170;BME280;46042;49.444;6.862;2023-08-06T20:30:27;98537.94;;;11.19;100.00
60170;BME280;46042;49.444;6.862;2023-08-06T20:32:54;98540.50;;;11.20;100.00
60170;BME280;46042;49.444;6.862;2023-08-06T20:35:20;98545.34;;;11.14;100.00
60170;BME280;46042;49.444;6.862;2023-08-06T20:37:47;98539.13;;;11.15;100.00
60170;BME280;46042;49.444;6.862;2023-08-06T20:40:14;98538.47;;;11.11;100.00
60170;BME280;46042;49.444;6.862;2023-08-06T20:42:40;98537.88;;;11.07;100.00
60170;BME280;46042;49.444;6.862;2023-08-06T20:45:07;98542.19;;;11.08;100.00
60170;BME280;46042;49.444;6.862;2023-08-06T20:47:34;98543.47;;;11.03;100.00
60170;BME280;46042;49.444;6.862;2023-08-06T20:50:00;98541.78;;;11.02;100.00
60170;BME280;46042;49.444;6.862;2023-08-06T20:52:27;98545.38;;;11.01;100.00
60170;BME280;46042;49.444;6.862;2023-08-06T20:54:54;98555.25;;;10.97;100.00
60170;BME280;46042;49.444;6.862;2023-08-06T20:57:21;98562.13;;;11.00;100.00
60170;BME280;46042;49.444;6.862;2023-08-06T20:59:47;98562.66;;;11.05;100.00
60170;BME280;46042;49.444;6.862;2023-08-06T21:02:14;98562.00;;;11.01;100.00
60170;BME280;46042;49.444;6.862;2023-08-06T21:04:41;98562.22;;;10.98;100.00
60170;BME280;46042;49.444;6.862;2023-08-06T21:07:07;98564.75;;;11.00;100.00
60170;BME280;46042;49.444;6.862;2023-08-06T21:09:34;98562.44;;;10.95;100.00
60170;BME280;46042;49.444;6.862;2023-08-06T21:12:01;98569.31;;;10.98;100.00
60170;BME280;46042;49.444;6.862;2023-08-06T21:14:28;98568.66;;;10.94;100.00
60170;BME280;46042;49.444;6.862;2023-08-06T21:16:54;98568.03;;;10.90;100.00
60170;BME280;46042;49.444;6.862;2023-08-06T21:19:21;98566.25;;;10.91;100.00
60170;BME280;46042;49.444;6.862;2023-08-06T21:21:48;98578.03;;;10.85;100.00
60170;BME280;46042;49.444;6.862;2023-08-06T21:24:15;98580.56;;;10.87;100.00
60170;BME280;46042;49.444;6.862;2023-08-06T21:26:41;98582.44;;;10.85;100.00
60170;BME280;46042;49.444;6.862;2023-08-06T21:29:08;98585.94;;;10.85;100.00
60170;BME280;46042;49.444;6.862;2023-08-06T21:31:36;98580.16;;;10.80;100.00
60170;BME280;46042;49.444;6.862;2023-08-06T21:34:02;98587.41;;;10.76;100.00
60170;BME280;46042;49.444;6.862;2023-08-06T21:36:29;98597.84;;;10.78;100.00
60170;BME280;46042;49.444;6.862;2023-08-06T21:38:57;98601.63;;;10.74;100.00
60170;BME280;46042;49.444;6.862;2023-08-06T21:41:24;98599.94;;;10.73;100.00
60170;BME280;46042;49.444;6.862;2023-08-06T21:43:51;98596.47;;;10.72;100.00
60170;BME280;46042;49.444;6.862;2023-08-06T21:46:20;98595.63;;;10.72;100.00
60170;BME280;46042;49.444;6.862;2023-08-06T21:48:48;98598.56;;;10.67;100.00
60170;BME280;46042;49.444;6.862;2023-08-06T21:51:17;98603.22;;;10.63;100.00
60170;BME280;46042;49.444;6.862;2023-08-06T21:53:44;98601.53;;;10.62;100.00
60170;BME280;46042;49.444;6.862;2023-08-06T21:56:12;98603.81;;;10.54;100.00
60170;BME280;46042;49.444;6.862;2023-08-06T22:01:07;98611.06;;;10.50;100.00
60170;BME280;46042;49.444;6.862;2023-08-06T22:03:35;98600.09;;;10.44;100.00
60170;BME280;46042;49.444;6.862;2023-08-06T22:06:02;98605.47;;;10.42;100.00
60170;BME280;46042;49.444;6.862;2023-08-06T22:08:29;98604.53;;;10.43;100.00
60170;BME280;46042;49.444;6.862;2023-08-06T22:10:56;98605.56;;;10.41;100.00
60170;BME280;46042;49.444;6.862;2023-08-06T22:13:23;98608.19;;;10.41;100.00
60170;BME280;46042;49.444;6.862;2023-08-06T22:15:50;98606.41;;;10.41;100.00
60170;BME280;46042;49.444;6.862;2023-08-06T22:18:18;98614.59;;;10.36;100.00
60170;BME280;46042;49.444;6.862;2023-08-06T22:20:45;98611.13;;;10.36;100.00
60170;BME280;46042;49.444;6.862;2023-08-06T22:23:12;98605.94;;;10.34;100.00
60170;BME280;46042;49.444;6.862;2023-08-06T22:25:39;98605.09;;;10.34;100.00
60170;BME280;46042;49.444;6.862;2023-08-06T22:28:05;98608.66;;;10.33;100.00
60170;BME280;46042;49.444;6.862;2023-08-06T22:30:32;98608.78;;;10.31;100.00
60170;BME280;46042;49.444;6.862;2023-08-06T22:32:59;98606.53;;;10.25;100.00
60170;BME280;46042;49.444;6.862;2023-08-06T22:35:26;98610.97;;;10.24;100.00
60170;BME280;46042;49.444;6.862;2023-08-06T22:37:53;98603.16;;;10.23;100.00
60170;BME280;46042;49.444;6.862;2023-08-06T22:40:19;98601.59;;;10.20;100.00
60170;BME280;46042;49.444;6.862;2023-08-06T22:42:47;98597.16;;;10.21;100.00
60170;BME280;46042;49.444;6.862;2023-08-06T22:45:14;98603.44;;;10.18;100.00
60170;BME280;46042;49.444;6.862;2023-08-06T22:47:41;98612.22;;;10.19;100.00
60170;BME280;46042;49.444;6.862;2023-08-06T22:50:10;98609.97;;;10.13;100.00
60170;BME280;46042;49.444;6.862;2023-08-06T22:52:37;98610.72;;;10.15;100.00
60170;BME280;46042;49.444;6.862;2023-08-06T22:55:05;98613.25;;;10.16;100.00
60170;BME280;46042;49.444;6.862;2023-08-06T22:57:52;98612.63;;;10.13;100.00
60170;BME280;46042;49.444;6.862;2023-08-06T23:00:18;98620.59;;;10.11;100.00
60170;BME280;46042;49.444;6.862;2023-08-06T23:02:45;98617.75;;;10.14;100.00
60170;BME280;46042;49.444;6.862;2023-08-06T23:05:31;98618.63;;;10.15;100.00
60170;BME280;46042;49.444;6.862;2023-08-06T23:07:58;98619.38;;;10.17;100.00
60170;BME280;46042;49.444;6.862;2023-08-06T23:10:25;98617.56;;;10.17;100.00
60170;BME280;46042;49.444;6.862;2023-08-06T23:12:52;98605.34;;;10.16;100.00
60170;BME280;46042;49.444;6.862;2023-08-06T23:15:18;98614.19;;;10.15;100.00
60170;BME280;46042;49.444;6.862;2023-08-06T23:17:45;98609.25;;;10.10;100.00
60170;BME280;46042;49.444;6.862;2023-08-06T23:20:12;98612.41;;;10.16;100.00
60170;BME280;46042;49.444;6.862;2023-08-06T23:22:38;98601.97;;;10.14;100.00
60170;BME280;46042;49.444;6.862;2023-08-06T23:25:05;98608.19;;;10.13;100.00
60170;BME280;46042;49.444;6.862;2023-08-06T23:27:32;98600.50;;;10.10;100.00
60170;BME280;46042;49.444;6.862;2023-08-06T23:29:58;98612.16;;;10.06;100.00
60170;BME280;46042;49.444;6.862;2023-08-06T23:32:27;98615.63;;;10.06;100.00
60170;BME280;46042;49.444;6.862;2023-08-06T23:34:55;98612.53;;;10.00;100.00
60170;BME280;46042;49.444;6.862;2023-08-06T23:37:22;98615.00;;;10.03;100.00
60170;BME280;46042;49.444;6.862;2023-08-06T23:39:48;98627.38;;;10.01;100.00
60170;BME280;46042;49.444;6.862;2023-08-06T23:42:19;98624.59;;;10.04;100.00
60170;BME280;46042;49.444;6.862;2023-08-06T23:44:46;98622.78;;;10.04;100.00
60170;BME280;46042;49.444;6.862;2023-08-06T23:47:13;98633.50;;;10.01;100.00
60170;BME280;46042;49.444;6.862;2023-08-06T23:49:39;98631.91;;;9.99;100.00
60170;BME280;46042;49.444;6.862;2023-08-06T23:52:06;98624.13;;;9.97;100.00
60170;BME280;46042;49.444;6.862;2023-08-06T23:54:33;98626.09;;;9.93;100.00
60170;BME280;46042;49.444;6.862;2023-08-06T23:57:00;98630.22;;;9.98;100.00
60170;BME280;46042;49.444;6.862;2023-08-06T23:59:26;98631.16;;;9.96;100.00
